<?xml version="1.0" encoding="UTF-8" standalone="no" ?>
<gpx xmlns="http://www.topografix.com/GPX/1/1" xmlns:xsi="http://www.w3.org/2001/XMLSchema-instance" xsi:schemaLocation="http://www.topografix.com/GPX/1/1 http://www.topografix.com/GPX/1/1/gpx.xsd" version="1.1" creator="VisuGPX - https://www.visugpx.com">
  <metadata>
    <name>luzech 6 descentes</name>
    <desc><![CDATA[parcours typé enduro avec de belles descentes]]></desc>
  </metadata>
  <trk>
    <name><![CDATA[2014-04-01-08-18-57]]></name>
    <trkseg>
      <trkpt lat="44.46058" lon="1.27528">
        <ele>258.027</ele>
        <time>2014-04-01T09:01:51Z</time>
      </trkpt>
      <trkpt lat="44.46049" lon="1.27523">
        <ele>257.598</ele>
        <time>2014-04-01T09:01:58Z</time>
      </trkpt>
      <trkpt lat="44.46038" lon="1.27514">
        <ele>257.817</ele>
        <time>2014-04-01T09:02:06Z</time>
      </trkpt>
      <trkpt lat="44.46028" lon="1.27508">
        <ele>258.407</ele>
        <time>2014-04-01T09:02:13Z</time>
      </trkpt>
      <trkpt lat="44.46018" lon="1.27502">
        <ele>258.897</ele>
        <time>2014-04-01T09:02:19Z</time>
      </trkpt>
      <trkpt lat="44.46005" lon="1.27492">
        <ele>260.057</ele>
        <time>2014-04-01T09:02:28Z</time>
      </trkpt>
      <trkpt lat="44.45993" lon="1.27484">
        <ele>261.297</ele>
        <time>2014-04-01T09:02:36Z</time>
      </trkpt>
      <trkpt lat="44.4598" lon="1.27475">
        <ele>263.217</ele>
        <time>2014-04-01T09:02:45Z</time>
      </trkpt>
      <trkpt lat="44.45968" lon="1.27467">
        <ele>266.147</ele>
        <time>2014-04-01T09:02:54Z</time>
      </trkpt>
      <trkpt lat="44.45959" lon="1.2746">
        <ele>268.167</ele>
        <time>2014-04-01T09:03:01Z</time>
      </trkpt>
      <trkpt lat="44.45951" lon="1.27457">
        <ele>268.936</ele>
        <time>2014-04-01T09:03:07Z</time>
      </trkpt>
      <trkpt lat="44.45941" lon="1.27452">
        <ele>268.927</ele>
        <time>2014-04-01T09:03:13Z</time>
      </trkpt>
      <trkpt lat="44.45925" lon="1.27439">
        <ele>269.897</ele>
        <time>2014-04-01T09:03:23Z</time>
      </trkpt>
      <trkpt lat="44.45907" lon="1.27427">
        <ele>270.716</ele>
        <time>2014-04-01T09:03:33Z</time>
      </trkpt>
      <trkpt lat="44.45892" lon="1.27419">
        <ele>271.366</ele>
        <time>2014-04-01T09:03:41Z</time>
      </trkpt>
      <trkpt lat="44.45868" lon="1.27409">
        <ele>272.756</ele>
        <time>2014-04-01T09:03:53Z</time>
      </trkpt>
      <trkpt lat="44.45845" lon="1.27399">
        <ele>274.066</ele>
        <time>2014-04-01T09:04:05Z</time>
      </trkpt>
      <trkpt lat="44.45823" lon="1.27391">
        <ele>275.006</ele>
        <time>2014-04-01T09:04:16Z</time>
      </trkpt>
      <trkpt lat="44.45798" lon="1.27384">
        <ele>276.856</ele>
        <time>2014-04-01T09:04:28Z</time>
      </trkpt>
      <trkpt lat="44.45779" lon="1.27381">
        <ele>277.796</ele>
        <time>2014-04-01T09:04:38Z</time>
      </trkpt>
      <trkpt lat="44.45759" lon="1.27382">
        <ele>277.885</ele>
        <time>2014-04-01T09:04:48Z</time>
      </trkpt>
      <trkpt lat="44.45744" lon="1.27385">
        <ele>278.645</ele>
        <time>2014-04-01T09:04:56Z</time>
      </trkpt>
      <trkpt lat="44.45727" lon="1.2739">
        <ele>280.926</ele>
        <time>2014-04-01T09:05:05Z</time>
      </trkpt>
      <trkpt lat="44.45711" lon="1.27397">
        <ele>281.785</ele>
        <time>2014-04-01T09:05:14Z</time>
      </trkpt>
      <trkpt lat="44.45699" lon="1.27403">
        <ele>280.975</ele>
        <time>2014-04-01T09:05:21Z</time>
      </trkpt>
      <trkpt lat="44.45683" lon="1.27417">
        <ele>282.365</ele>
        <time>2014-04-01T09:05:32Z</time>
      </trkpt>
      <trkpt lat="44.45671" lon="1.27428">
        <ele>284.035</ele>
        <time>2014-04-01T09:05:40Z</time>
      </trkpt>
      <trkpt lat="44.45663" lon="1.27438">
        <ele>286.846</ele>
        <time>2014-04-01T09:05:47Z</time>
      </trkpt>
      <trkpt lat="44.45654" lon="1.27453">
        <ele>288.805</ele>
        <time>2014-04-01T09:05:55Z</time>
      </trkpt>
      <trkpt lat="44.45647" lon="1.27468">
        <ele>289.025</ele>
        <time>2014-04-01T09:06:03Z</time>
      </trkpt>
      <trkpt lat="44.4564" lon="1.27485">
        <ele>288.614</ele>
        <time>2014-04-01T09:06:12Z</time>
      </trkpt>
      <trkpt lat="44.45632" lon="1.27501">
        <ele>289.175</ele>
        <time>2014-04-01T09:06:21Z</time>
      </trkpt>
      <trkpt lat="44.45624" lon="1.27514">
        <ele>290.404</ele>
        <time>2014-04-01T09:06:29Z</time>
      </trkpt>
      <trkpt lat="44.45614" lon="1.27525">
        <ele>291.565</ele>
        <time>2014-04-01T09:06:36Z</time>
      </trkpt>
      <trkpt lat="44.45597" lon="1.27536">
        <ele>292.385</ele>
        <time>2014-04-01T09:06:44Z</time>
      </trkpt>
      <trkpt lat="44.45577" lon="1.27544">
        <ele>292.664</ele>
        <time>2014-04-01T09:06:54Z</time>
      </trkpt>
      <trkpt lat="44.45563" lon="1.27548">
        <ele>293.594</ele>
        <time>2014-04-01T09:07:01Z</time>
      </trkpt>
      <trkpt lat="44.45547" lon="1.27552">
        <ele>294.524</ele>
        <time>2014-04-01T09:07:09Z</time>
      </trkpt>
      <trkpt lat="44.4553" lon="1.27558">
        <ele>296.015</ele>
        <time>2014-04-01T09:07:18Z</time>
      </trkpt>
      <trkpt lat="44.45518" lon="1.27562">
        <ele>297.144</ele>
        <time>2014-04-01T09:07:25Z</time>
      </trkpt>
      <trkpt lat="44.45504" lon="1.27568">
        <ele>298.465</ele>
        <time>2014-04-01T09:07:33Z</time>
      </trkpt>
      <trkpt lat="44.45487" lon="1.27573">
        <ele>298.954</ele>
        <time>2014-04-01T09:07:42Z</time>
      </trkpt>
      <trkpt lat="44.45473" lon="1.27575">
        <ele>299.964</ele>
        <time>2014-04-01T09:07:49Z</time>
      </trkpt>
      <trkpt lat="44.45454" lon="1.27577">
        <ele>300.184</ele>
        <time>2014-04-01T09:07:58Z</time>
      </trkpt>
      <trkpt lat="44.45438" lon="1.2758">
        <ele>299.993</ele>
        <time>2014-04-01T09:08:06Z</time>
      </trkpt>
      <trkpt lat="44.45424" lon="1.27579">
        <ele>300.763</ele>
        <time>2014-04-01T09:08:14Z</time>
      </trkpt>
      <trkpt lat="44.45412" lon="1.27578">
        <ele>301.094</ele>
        <time>2014-04-01T09:08:20Z</time>
      </trkpt>
      <trkpt lat="44.45397" lon="1.27575">
        <ele>301.073</ele>
        <time>2014-04-01T09:08:27Z</time>
      </trkpt>
      <trkpt lat="44.45376" lon="1.27571">
        <ele>300.373</ele>
        <time>2014-04-01T09:08:35Z</time>
      </trkpt>
      <trkpt lat="44.4535" lon="1.27561">
        <ele>299.103</ele>
        <time>2014-04-01T09:08:43Z</time>
      </trkpt>
      <trkpt lat="44.45346" lon="1.27559">
        <ele>298.813</ele>
        <time>2014-04-01T09:08:44Z</time>
      </trkpt>
      <trkpt lat="44.45324" lon="1.27551">
        <ele>298.553</ele>
        <time>2014-04-01T09:08:50Z</time>
      </trkpt>
      <trkpt lat="44.45302" lon="1.27542">
        <ele>299.394</ele>
        <time>2014-04-01T09:08:57Z</time>
      </trkpt>
      <trkpt lat="44.45293" lon="1.27545">
        <ele>300.794</ele>
        <time>2014-04-01T09:09:01Z</time>
      </trkpt>
      <trkpt lat="44.45285" lon="1.27556">
        <ele>301.923</ele>
        <time>2014-04-01T09:09:07Z</time>
      </trkpt>
      <trkpt lat="44.45277" lon="1.27576">
        <ele>302.303</ele>
        <time>2014-04-01T09:09:13Z</time>
      </trkpt>
      <trkpt lat="44.45265" lon="1.27602">
        <ele>301.712</ele>
        <time>2014-04-01T09:09:18Z</time>
      </trkpt>
      <trkpt lat="44.4526" lon="1.27636">
        <ele>299.991</ele>
        <time>2014-04-01T09:09:23Z</time>
      </trkpt>
      <trkpt lat="44.45269" lon="1.27667">
        <ele>296.4</ele>
        <time>2014-04-01T09:09:27Z</time>
      </trkpt>
      <trkpt lat="44.45275" lon="1.27674">
        <ele>295.64</ele>
        <time>2014-04-01T09:09:28Z</time>
      </trkpt>
      <trkpt lat="44.45322" lon="1.2772">
        <ele>293.093</ele>
        <time>2014-04-01T09:09:36Z</time>
      </trkpt>
      <trkpt lat="44.45341" lon="1.27738">
        <ele>293.424</ele>
        <time>2014-04-01T09:09:40Z</time>
      </trkpt>
      <trkpt lat="44.45353" lon="1.27765">
        <ele>294.104</ele>
        <time>2014-04-01T09:09:45Z</time>
      </trkpt>
      <trkpt lat="44.45351" lon="1.2778">
        <ele>294.815</ele>
        <time>2014-04-01T09:09:48Z</time>
      </trkpt>
      <trkpt lat="44.4534" lon="1.27804">
        <ele>296.985</ele>
        <time>2014-04-01T09:09:55Z</time>
      </trkpt>
      <trkpt lat="44.45327" lon="1.27829">
        <ele>298.214</ele>
        <time>2014-04-01T09:10:03Z</time>
      </trkpt>
      <trkpt lat="44.45309" lon="1.27862">
        <ele>299.674</ele>
        <time>2014-04-01T09:10:14Z</time>
      </trkpt>
      <trkpt lat="44.45301" lon="1.27871">
        <ele>299.884</ele>
        <time>2014-04-01T09:10:18Z</time>
      </trkpt>
      <trkpt lat="44.45289" lon="1.27866">
        <ele>300.974</ele>
        <time>2014-04-01T09:10:23Z</time>
      </trkpt>
      <trkpt lat="44.4527" lon="1.2786">
        <ele>301.443</ele>
        <time>2014-04-01T09:10:30Z</time>
      </trkpt>
      <trkpt lat="44.45246" lon="1.27872">
        <ele>299.091</ele>
        <time>2014-04-01T09:10:35Z</time>
      </trkpt>
      <trkpt lat="44.45205" lon="1.27894">
        <ele>296.993</ele>
        <time>2014-04-01T09:10:42Z</time>
      </trkpt>
      <trkpt lat="44.45169" lon="1.27915">
        <ele>296.833</ele>
        <time>2014-04-01T09:10:49Z</time>
      </trkpt>
      <trkpt lat="44.4514" lon="1.27934">
        <ele>296.703</ele>
        <time>2014-04-01T09:10:56Z</time>
      </trkpt>
      <trkpt lat="44.45116" lon="1.27961">
        <ele>296.263</ele>
        <time>2014-04-01T09:11:04Z</time>
      </trkpt>
      <trkpt lat="44.45096" lon="1.27997">
        <ele>296.253</ele>
        <time>2014-04-01T09:11:12Z</time>
      </trkpt>
      <trkpt lat="44.4508" lon="1.28029">
        <ele>296.943</ele>
        <time>2014-04-01T09:11:20Z</time>
      </trkpt>
      <trkpt lat="44.45066" lon="1.28042">
        <ele>299.314</ele>
        <time>2014-04-01T09:11:26Z</time>
      </trkpt>
      <trkpt lat="44.45046" lon="1.28053">
        <ele>300.813</ele>
        <time>2014-04-01T09:11:34Z</time>
      </trkpt>
      <trkpt lat="44.45027" lon="1.28069">
        <ele>300.722</ele>
        <time>2014-04-01T09:11:42Z</time>
      </trkpt>
      <trkpt lat="44.45017" lon="1.28087">
        <ele>302.364</ele>
        <time>2014-04-01T09:11:48Z</time>
      </trkpt>
      <trkpt lat="44.45003" lon="1.28113">
        <ele>305.804</ele>
        <time>2014-04-01T09:11:56Z</time>
      </trkpt>
      <trkpt lat="44.44985" lon="1.2814">
        <ele>308.733</ele>
        <time>2014-04-01T09:12:06Z</time>
      </trkpt>
      <trkpt lat="44.44975" lon="1.2817">
        <ele>306.292</ele>
        <time>2014-04-01T09:12:13Z</time>
      </trkpt>
      <trkpt lat="44.44965" lon="1.28195">
        <ele>306.332</ele>
        <time>2014-04-01T09:12:19Z</time>
      </trkpt>
      <trkpt lat="44.44963" lon="1.28213">
        <ele>305.672</ele>
        <time>2014-04-01T09:12:22Z</time>
      </trkpt>
      <trkpt lat="44.44965" lon="1.28267">
        <ele>303.111</ele>
        <time>2014-04-01T09:12:30Z</time>
      </trkpt>
      <trkpt lat="44.44972" lon="1.28331">
        <ele>301.332</ele>
        <time>2014-04-01T09:12:38Z</time>
      </trkpt>
      <trkpt lat="44.4498" lon="1.2838">
        <ele>302.293</ele>
        <time>2014-04-01T09:12:45Z</time>
      </trkpt>
      <trkpt lat="44.44988" lon="1.28424">
        <ele>303.794</ele>
        <time>2014-04-01T09:12:53Z</time>
      </trkpt>
      <trkpt lat="44.44996" lon="1.28466">
        <ele>304.643</ele>
        <time>2014-04-01T09:13:01Z</time>
      </trkpt>
      <trkpt lat="44.45" lon="1.28511">
        <ele>303.502</ele>
        <time>2014-04-01T09:13:09Z</time>
      </trkpt>
      <trkpt lat="44.44997" lon="1.28553">
        <ele>301.812</ele>
        <time>2014-04-01T09:13:15Z</time>
      </trkpt>
      <trkpt lat="44.45001" lon="1.28599">
        <ele>298.8</ele>
        <time>2014-04-01T09:13:21Z</time>
      </trkpt>
      <trkpt lat="44.45001" lon="1.28608">
        <ele>298.37</ele>
        <time>2014-04-01T09:13:22Z</time>
      </trkpt>
      <trkpt lat="44.44994" lon="1.28654">
        <ele>295.661</ele>
        <time>2014-04-01T09:13:27Z</time>
      </trkpt>
      <trkpt lat="44.44983" lon="1.28715">
        <ele>292.632</ele>
        <time>2014-04-01T09:13:33Z</time>
      </trkpt>
      <trkpt lat="44.44979" lon="1.28761">
        <ele>292.433</ele>
        <time>2014-04-01T09:13:38Z</time>
      </trkpt>
      <trkpt lat="44.44976" lon="1.28807">
        <ele>292.894</ele>
        <time>2014-04-01T09:13:45Z</time>
      </trkpt>
      <trkpt lat="44.44975" lon="1.28852">
        <ele>293.674</ele>
        <time>2014-04-01T09:13:53Z</time>
      </trkpt>
      <trkpt lat="44.44975" lon="1.28908">
        <ele>294.124</ele>
        <time>2014-04-01T09:14:03Z</time>
      </trkpt>
      <trkpt lat="44.44975" lon="1.28949">
        <ele>294.124</ele>
        <time>2014-04-01T09:14:11Z</time>
      </trkpt>
      <trkpt lat="44.44976" lon="1.28987">
        <ele>293.674</ele>
        <time>2014-04-01T09:14:18Z</time>
      </trkpt>
      <trkpt lat="44.44978" lon="1.29009">
        <ele>293.364</ele>
        <time>2014-04-01T09:14:22Z</time>
      </trkpt>
      <trkpt lat="44.4498" lon="1.29026">
        <ele>293.144</ele>
        <time>2014-04-01T09:14:25Z</time>
      </trkpt>
      <trkpt lat="44.45" lon="1.29073">
        <ele>292.734</ele>
        <time>2014-04-01T09:14:34Z</time>
      </trkpt>
      <trkpt lat="44.45023" lon="1.29118">
        <ele>290.832</ele>
        <time>2014-04-01T09:14:42Z</time>
      </trkpt>
      <trkpt lat="44.45032" lon="1.29155">
        <ele>289.162</ele>
        <time>2014-04-01T09:14:47Z</time>
      </trkpt>
      <trkpt lat="44.45042" lon="1.29212">
        <ele>286.263</ele>
        <time>2014-04-01T09:14:54Z</time>
      </trkpt>
      <trkpt lat="44.4506" lon="1.29247">
        <ele>283.993</ele>
        <time>2014-04-01T09:14:59Z</time>
      </trkpt>
      <trkpt lat="44.45078" lon="1.29261">
        <ele>282.593</ele>
        <time>2014-04-01T09:15:02Z</time>
      </trkpt>
      <trkpt lat="44.45135" lon="1.29288">
        <ele>278.893</ele>
        <time>2014-04-01T09:15:11Z</time>
      </trkpt>
      <trkpt lat="44.45154" lon="1.29298">
        <ele>277.604</ele>
        <time>2014-04-01T09:15:15Z</time>
      </trkpt>
      <trkpt lat="44.45154" lon="1.29298">
        <ele>277.567</ele>
        <time>2014-04-01T09:15:17Z</time>
      </trkpt>
    </trkseg>
  </trk>
</gpx>